sensor_id;sensor_type;location;lat;lon;timestamp;P1;durP1;ratioP1;P2;durP2;ratioP2
18046;SDS011;9148;51.454;13.862;2023-01-15T00:01:19;0.70;;;0.70;;
18046;SDS011;9148;51.454;13.862;2023-01-15T00:03:54;0.60;;;0.57;;
18046;SDS011;9148;51.454;13.862;2023-01-15T00:06:23;0.83;;;0.73;;
18046;SDS011;9148;51.454;13.862;2023-01-15T00:08:50;1.27;;;0.90;;
18046;SDS011;9148;51.454;13.862;2023-01-15T00:11:18;0.83;;;0.77;;
18046;SDS011;9148;51.454;13.862;2023-01-15T00:13:45;0.67;;;0.67;;
18046;SDS011;9148;51.454;13.862;2023-01-15T00:16:18;2.67;;;1.17;;
18046;SDS011;9148;51.454;13.862;2023-01-15T00:18:50;1.80;;;1.07;;
18046;SDS011;9148;51.454;13.862;2023-01-15T00:21:16;0.77;;;0.77;;
18046;SDS011;9148;51.454;13.862;2023-01-15T00:23:42;0.83;;;0.53;;
18046;SDS011;9148;51.454;13.862;2023-01-15T00:26:28;1.23;;;0.50;;
18046;SDS011;9148;51.454;13.862;2023-01-15T00:29:14;0.50;;;0.47;;
18046;SDS011;9148;51.454;13.862;2023-01-15T00:31:41;1.33;;;0.70;;
18046;SDS011;9148;51.454;13.862;2023-01-15T00:34:08;1.10;;;0.70;;
18046;SDS011;9148;51.454;13.862;2023-01-15T00:36:34;1.03;;;0.83;;
18046;SDS011;9148;51.454;13.862;2023-01-15T00:39:01;0.93;;;0.70;;
18046;SDS011;9148;51.454;13.862;2023-01-15T00:41:28;0.50;;;0.50;;
18046;SDS011;9148;51.454;13.862;2023-01-15T00:43:54;0.63;;;0.63;;
18046;SDS011;9148;51.454;13.862;2023-01-15T00:46:21;1.53;;;0.67;;
18046;SDS011;9148;51.454;13.862;2023-01-15T00:48:46;0.43;;;0.30;;
18046;SDS011;9148;51.454;13.862;2023-01-15T00:51:12;0.60;;;0.60;;
18046;SDS011;9148;51.454;13.862;2023-01-15T00:53:38;0.50;;;0.50;;
18046;SDS011;9148;51.454;13.862;2023-01-15T00:56:03;0.20;;;0.20;;
18046;SDS011;9148;51.454;13.862;2023-01-15T00:58:29;0.30;;;0.30;;
18046;SDS011;9148;51.454;13.862;2023-01-15T01:00:55;0.93;;;0.67;;
18046;SDS011;9148;51.454;13.862;2023-01-15T01:03:23;0.50;;;0.40;;
18046;SDS011;9148;51.454;13.862;2023-01-15T01:05:49;1.13;;;0.60;;
18046;SDS011;9148;51.454;13.862;2023-01-15T01:08:15;1.10;;;0.70;;
18046;SDS011;9148;51.454;13.862;2023-01-15T01:10:41;0.50;;;0.50;;
18046;SDS011;9148;51.454;13.862;2023-01-15T01:13:07;0.80;;;0.37;;
18046;SDS011;9148;51.454;13.862;2023-01-15T01:15:33;0.80;;;0.80;;
18046;SDS011;9148;51.454;13.862;2023-01-15T01:18:01;1.03;;;0.40;;
18046;SDS011;9148;51.454;13.862;2023-01-15T01:20:29;1.87;;;1.00;;
18046;SDS011;9148;51.454;13.862;2023-01-15T01:22:54;0.50;;;0.50;;
18046;SDS011;9148;51.454;13.862;2023-01-15T01:25:20;0.40;;;0.40;;
18046;SDS011;9148;51.454;13.862;2023-01-15T01:27:46;0.33;;;0.23;;
18046;SDS011;9148;51.454;13.862;2023-01-15T01:30:13;0.40;;;0.30;;
18046;SDS011;9148;51.454;13.862;2023-01-15T01:32:39;0.57;;;0.40;;
18046;SDS011;9148;51.454;13.862;2023-01-15T01:35:08;0.17;;;0.17;;
18046;SDS011;9148;51.454;13.862;2023-01-15T01:37:35;0.97;;;0.53;;
18046;SDS011;9148;51.454;13.862;2023-01-15T01:40:00;0.40;;;0.30;;
18046;SDS011;9148;51.454;13.862;2023-01-15T01:42:26;0.20;;;0.20;;
18046;SDS011;9148;51.454;13.862;2023-01-15T01:45:00;0.20;;;0.20;;
18046;SDS011;9148;51.454;13.862;2023-01-15T01:47:53;0.33;;;0.30;;
18046;SDS011;9148;51.454;13.862;2023-01-15T01:50:24;0.73;;;0.43;;
18046;SDS011;9148;51.454;13.862;2023-01-15T01:52:51;3.90;;;0.50;;
18046;SDS011;9148;51.454;13.862;2023-01-15T01:55:21;0.40;;;0.30;;
18046;SDS011;9148;51.454;13.862;2023-01-15T01:57:49;0.27;;;0.27;;
18046;SDS011;9148;51.454;13.862;2023-01-15T02:00:19;0.77;;;0.37;;
18046;SDS011;9148;51.454;13.862;2023-01-15T02:02:48;0.10;;;0.10;;
18046;SDS011;9148;51.454;13.862;2023-01-15T02:05:20;1.80;;;0.40;;
18046;SDS011;9148;51.454;13.862;2023-01-15T02:07:54;0.20;;;0.17;;
18046;SDS011;9148;51.454;13.862;2023-01-15T02:10:20;0.10;;;0.10;;
18046;SDS011;9148;51.454;13.862;2023-01-15T02:12:48;0.77;;;0.30;;
18046;SDS011;9148;51.454;13.862;2023-01-15T02:15:31;0.47;;;0.33;;
18046;SDS011;9148;51.454;13.862;2023-01-15T02:18:06;0.00;;;0.00;;
18046;SDS011;9148;51.454;13.862;2023-01-15T02:20:58;0.30;;;0.20;;
18046;SDS011;9148;51.454;13.862;2023-01-15T02:32:26;0.40;;;0.40;;
18046;SDS011;9148;51.454;13.862;2023-01-15T02:35:01;0.43;;;0.37;;
18046;SDS011;9148;51.454;13.862;2023-01-15T02:37:40;0.50;;;0.20;;
18046;SDS011;9148;51.454;13.862;2023-01-15T02:40:11;0.10;;;0.10;;
18046;SDS011;9148;51.454;13.862;2023-01-15T02:42:38;0.00;;;0.00;;
18046;SDS011;9148;51.454;13.862;2023-01-15T02:45:06;0.17;;;0.17;;
18046;SDS011;9148;51.454;13.862;2023-01-15T02:47:35;0.20;;;0.10;;
18046;SDS011;9148;51.454;13.862;2023-01-15T02:50:05;0.17;;;0.17;;
18046;SDS011;9148;51.454;13.862;2023-01-15T02:52:41;1.03;;;0.20;;
18046;SDS011;9148;51.454;13.862;2023-01-15T02:55:15;0.10;;;0.10;;
18046;SDS011;9148;51.454;13.862;2023-01-15T02:57:46;0.10;;;0.10;;
18046;SDS011;9148;51.454;13.862;2023-01-15T03:00:16;0.00;;;0.00;;
18046;SDS011;9148;51.454;13.862;2023-01-15T03:05:56;0.00;;;0.00;;
18046;SDS011;9148;51.454;13.862;2023-01-15T03:08:29;0.10;;;0.10;;
18046;SDS011;9148;51.454;13.862;2023-01-15T03:16:19;0.00;;;0.00;;
18046;SDS011;9148;51.454;13.862;2023-01-15T03:22:02;0.60;;;0.10;;
18046;SDS011;9148;51.454;13.862;2023-01-15T03:24:51;0.10;;;0.10;;
18046;SDS011;9148;51.454;13.862;2023-01-15T03:27:28;0.00;;;0.00;;
18046;SDS011;9148;51.454;13.862;2023-01-15T03:29:58;0.60;;;0.10;;
18046;SDS011;9148;51.454;13.862;2023-01-15T03:32:29;0.10;;;0.10;;
18046;SDS011;9148;51.454;13.862;2023-01-15T03:34:55;1.40;;;0.23;;
18046;SDS011;9148;51.454;13.862;2023-01-15T03:37:23;0.07;;;0.07;;
18046;SDS011;9148;51.454;13.862;2023-01-15T03:39:51;0.13;;;0.10;;
18046;SDS011;9148;51.454;13.862;2023-01-15T03:42:21;0.10;;;0.10;;
18046;SDS011;9148;51.454;13.862;2023-01-15T03:50:25;0.00;;;0.00;;
18046;SDS011;9148;51.454;13.862;2023-01-15T03:53:11;0.10;;;0.10;;
18046;SDS011;9148;51.454;13.862;2023-01-15T03:55:55;0.17;;;0.17;;
18046;SDS011;9148;51.454;13.862;2023-01-15T03:58:47;0.13;;;0.10;;
18046;SDS011;9148;51.454;13.862;2023-01-15T04:01:19;0.00;;;0.00;;
18046;SDS011;9148;51.454;13.862;2023-01-15T04:03:56;0.97;;;0.17;;
18046;SDS011;9148;51.454;13.862;2023-01-15T04:06:24;0.10;;;0.10;;
18046;SDS011;9148;51.454;13.862;2023-01-15T04:08:53;0.40;;;0.20;;
18046;SDS011;9148;51.454;13.862;2023-01-15T04:11:21;0.70;;;0.30;;
18046;SDS011;9148;51.454;13.862;2023-01-15T04:13:49;0.07;;;0.07;;
18046;SDS011;9148;51.454;13.862;2023-01-15T04:16:16;0.00;;;0.00;;
18046;SDS011;9148;51.454;13.862;2023-01-15T04:18:50;0.10;;;0.10;;
18046;SDS011;9148;51.454;13.862;2023-01-15T04:21:16;0.00;;;0.00;;
18046;SDS011;9148;51.454;13.862;2023-01-15T04:23:41;0.23;;;0.23;;
18046;SDS011;9148;51.454;13.862;2023-01-15T04:26:07;0.23;;;0.20;;
18046;SDS011;9148;51.454;13.862;2023-01-15T04:28:33;0.10;;;0.10;;
18046;SDS011;9148;51.454;13.862;2023-01-15T04:30:58;0.10;;;0.10;;
18046;SDS011;9148;51.454;13.862;2023-01-15T04:33:24;0.00;;;0.00;;
18046;SDS011;9148;51.454;13.862;2023-01-15T04:35:50;0.10;;;0.10;;
18046;SDS011;9148;51.454;13.862;2023-01-15T04:38:16;0.30;;;0.23;;
18046;SDS011;9148;51.454;13.862;2023-01-15T04:40:42;1.13;;;0.20;;
18046;SDS011;9148;51.454;13.862;2023-01-15T04:43:27;0.10;;;0.10;;
18046;SDS011;9148;51.454;13.862;2023-01-15T04:46:11;0.20;;;0.20;;
18046;SDS011;9148;51.454;13.862;2023-01-15T04:48:38;0.10;;;0.03;;
18046;SDS011;9148;51.454;13.862;2023-01-15T04:51:05;0.10;;;0.10;;
18046;SDS011;9148;51.454;13.862;2023-01-15T04:53:31;0.20;;;0.10;;
18046;SDS011;9148;51.454;13.862;2023-01-15T04:56:01;0.23;;;0.10;;
18046;SDS011;9148;51.454;13.862;2023-01-15T04:58:28;0.27;;;0.27;;
18046;SDS011;9148;51.454;13.862;2023-01-15T05:00:55;0.20;;;0.10;;
18046;SDS011;9148;51.454;13.862;2023-01-15T05:03:21;0.10;;;0.10;;
18046;SDS011;9148;51.454;13.862;2023-01-15T05:05:47;0.10;;;0.10;;
18046;SDS011;9148;51.454;13.862;2023-01-15T05:08:14;0.30;;;0.00;;
18046;SDS011;9148;51.454;13.862;2023-01-15T05:10:40;0.10;;;0.10;;
18046;SDS011;9148;51.454;13.862;2023-01-15T05:13:05;0.17;;;0.10;;
18046;SDS011;9148;51.454;13.862;2023-01-15T05:15:31;0.27;;;0.20;;
18046;SDS011;9148;51.454;13.862;2023-01-15T05:17:57;0.13;;;0.13;;
18046;SDS011;9148;51.454;13.862;2023-01-15T05:20:22;0.10;;;0.10;;
18046;SDS011;9148;51.454;13.862;2023-01-15T05:22:48;0.43;;;0.30;;
18046;SDS011;9148;51.454;13.862;2023-01-15T05:25:14;0.63;;;0.20;;
18046;SDS011;9148;51.454;13.862;2023-01-15T05:27:39;0.30;;;0.10;;
18046;SDS011;9148;51.454;13.862;2023-01-15T05:30:07;0.70;;;0.10;;
18046;SDS011;9148;51.454;13.862;2023-01-15T05:32:34;0.20;;;0.10;;
18046;SDS011;9148;51.454;13.862;2023-01-15T05:34:59;0.77;;;0.20;;
18046;SDS011;9148;51.454;13.862;2023-01-15T05:37:25;0.10;;;0.10;;
18046;SDS011;9148;51.454;13.862;2023-01-15T05:39:54;0.37;;;0.10;;
18046;SDS011;9148;51.454;13.862;2023-01-15T05:42:19;0.10;;;0.10;;
18046;SDS011;9148;51.454;13.862;2023-01-15T05:44:45;0.10;;;0.10;;
18046;SDS011;9148;51.454;13.862;2023-01-15T05:47:10;0.43;;;0.17;;
18046;SDS011;9148;51.454;13.862;2023-01-15T05:49:36;0.20;;;0.20;;
18046;SDS011;9148;51.454;13.862;2023-01-15T05:52:02;0.50;;;0.10;;
18046;SDS011;9148;51.454;13.862;2023-01-15T05:54:29;0.10;;;0.10;;
18046;SDS011;9148;51.454;13.862;2023-01-15T05:56:59;0.33;;;0.20;;
18046;SDS011;9148;51.454;13.862;2023-01-15T05:59:26;0.10;;;0.03;;
18046;SDS011;9148;51.454;13.862;2023-01-15T06:01:53;0.10;;;0.10;;
18046;SDS011;9148;51.454;13.862;2023-01-15T06:04:19;0.33;;;0.30;;
18046;SDS011;9148;51.454;13.862;2023-01-15T06:06:46;0.20;;;0.20;;
18046;SDS011;9148;51.454;13.862;2023-01-15T06:09:14;0.10;;;0.10;;
18046;SDS011;9148;51.454;13.862;2023-01-15T06:11:40;0.30;;;0.10;;
18046;SDS011;9148;51.454;13.862;2023-01-15T06:14:06;0.20;;;0.20;;
18046;SDS011;9148;51.454;13.862;2023-01-15T06:16:32;0.10;;;0.10;;
18046;SDS011;9148;51.454;13.862;2023-01-15T06:18:59;0.87;;;0.20;;
18046;SDS011;9148;51.454;13.862;2023-01-15T06:21:29;0.00;;;0.00;;
18046;SDS011;9148;51.454;13.862;2023-01-15T06:23:55;0.30;;;0.10;;
18046;SDS011;9148;51.454;13.862;2023-01-15T06:26:21;0.00;;;0.00;;
18046;SDS011;9148;51.454;13.862;2023-01-15T06:28:47;0.00;;;0.00;;
18046;SDS011;9148;51.454;13.862;2023-01-15T06:31:14;0.07;;;0.07;;
18046;SDS011;9148;51.454;13.862;2023-01-15T06:33:43;0.30;;;0.10;;
18046;SDS011;9148;51.454;13.862;2023-01-15T06:36:10;0.40;;;0.10;;
18046;SDS011;9148;51.454;13.862;2023-01-15T06:38:41;0.10;;;0.10;;
18046;SDS011;9148;51.454;13.862;2023-01-15T06:41:09;0.23;;;0.23;;
18046;SDS011;9148;51.454;13.862;2023-01-15T06:43:57;0.10;;;0.10;;
18046;SDS011;9148;51.454;13.862;2023-01-15T06:46:43;0.40;;;0.10;;
18046;SDS011;9148;51.454;13.862;2023-01-15T06:49:31;0.10;;;0.10;;
18046;SDS011;9148;51.454;13.862;2023-01-15T06:51:59;0.00;;;0.00;;
18046;SDS011;9148;51.454;13.862;2023-01-15T06:54:25;0.10;;;0.10;;
18046;SDS011;9148;51.454;13.862;2023-01-15T06:56:51;0.03;;;0.03;;
18046;SDS011;9148;51.454;13.862;2023-01-15T06:59:17;0.10;;;0.10;;
18046;SDS011;9148;51.454;13.862;2023-01-15T07:01:44;0.30;;;0.30;;
18046;SDS011;9148;51.454;13.862;2023-01-15T07:04:09;0.70;;;0.27;;
18046;SDS011;9148;51.454;13.862;2023-01-15T07:06:35;0.30;;;0.23;;
18046;SDS011;9148;51.454;13.862;2023-01-15T07:09:01;1.70;;;0.87;;
18046;SDS011;9148;51.454;13.862;2023-01-15T07:11:27;2.13;;;0.70;;
18046;SDS011;9148;51.454;13.862;2023-01-15T07:13:52;0.10;;;0.10;;
18046;SDS011;9148;51.454;13.862;2023-01-15T07:16:35;0.40;;;0.30;;
18046;SDS011;9148;51.454;13.862;2023-01-15T07:19:02;5.73;;;2.27;;
18046;SDS011;9148;51.454;13.862;2023-01-15T07:21:28;7.70;;;2.33;;
18046;SDS011;9148;51.454;13.862;2023-01-15T07:23:57;1.70;;;1.30;;
18046;SDS011;9148;51.454;13.862;2023-01-15T07:26:24;5.23;;;1.60;;
18046;SDS011;9148;51.454;13.862;2023-01-15T07:28:51;1.40;;;1.03;;
18046;SDS011;9148;51.454;13.862;2023-01-15T07:31:16;0.57;;;0.57;;
18046;SDS011;9148;51.454;13.862;2023-01-15T07:33:42;1.77;;;1.67;;
18046;SDS011;9148;51.454;13.862;2023-01-15T07:36:08;1.53;;;1.13;;
18046;SDS011;9148;51.454;13.862;2023-01-15T07:38:33;0.30;;;0.30;;
18046;SDS011;9148;51.454;13.862;2023-01-15T07:40:59;6.70;;;2.77;;
18046;SDS011;9148;51.454;13.862;2023-01-15T07:43:44;3.60;;;1.83;;
18046;SDS011;9148;51.454;13.862;2023-01-15T07:46:29;2.63;;;1.37;;
18046;SDS011;9148;51.454;13.862;2023-01-15T07:49:14;1.17;;;0.60;;
18046;SDS011;9148;51.454;13.862;2023-01-15T07:51:59;1.90;;;0.50;;
18046;SDS011;9148;51.454;13.862;2023-01-15T07:54:25;2.73;;;0.97;;
18046;SDS011;9148;51.454;13.862;2023-01-15T07:56:51;2.33;;;1.50;;
18046;SDS011;9148;51.454;13.862;2023-01-15T07:59:18;0.50;;;0.40;;
18046;SDS011;9148;51.454;13.862;2023-01-15T08:01:44;0.77;;;0.70;;
18046;SDS011;9148;51.454;13.862;2023-01-15T08:04:10;0.20;;;0.20;;
18046;SDS011;9148;51.454;13.862;2023-01-15T08:06:35;0.60;;;0.43;;
18046;SDS011;9148;51.454;13.862;2023-01-15T08:09:01;0.20;;;0.20;;
18046;SDS011;9148;51.454;13.862;2023-01-15T08:11:27;0.20;;;0.20;;
18046;SDS011;9148;51.454;13.862;2023-01-15T08:14:13;0.53;;;0.39;;
18046;SDS011;9148;51.454;13.862;2023-01-15T08:16:57;0.73;;;0.43;;
18046;SDS011;9148;51.454;13.862;2023-01-15T08:19:23;1.43;;;0.40;;
18046;SDS011;9148;51.454;13.862;2023-01-15T08:21:54;0.37;;;0.37;;
18046;SDS011;9148;51.454;13.862;2023-01-15T08:24:21;0.20;;;0.20;;
18046;SDS011;9148;51.454;13.862;2023-01-15T08:26:47;0.20;;;0.20;;
18046;SDS011;9148;51.454;13.862;2023-01-15T08:29:13;2.03;;;0.50;;
18046;SDS011;9148;51.454;13.862;2023-01-15T08:31:39;0.60;;;0.20;;
18046;SDS011;9148;51.454;13.862;2023-01-15T08:34:05;0.30;;;0.10;;
18046;SDS011;9148;51.454;13.862;2023-01-15T08:36:32;0.10;;;0.10;;
18046;SDS011;9148;51.454;13.862;2023-01-15T08:38:58;0.20;;;0.20;;
18046;SDS011;9148;51.454;13.862;2023-01-15T08:41:24;0.20;;;0.20;;
18046;SDS011;9148;51.454;13.862;2023-01-15T08:43:49;0.30;;;0.20;;
18046;SDS011;9148;51.454;13.862;2023-01-15T08:46:15;0.47;;;0.40;;
18046;SDS011;9148;51.454;13.862;2023-01-15T08:48:41;0.23;;;0.23;;
18046;SDS011;9148;51.454;13.862;2023-01-15T08:51:07;2.00;;;0.70;;
18046;SDS011;9148;51.454;13.862;2023-01-15T08:53:34;0.50;;;0.50;;
18046;SDS011;9148;51.454;13.862;2023-01-15T08:56:01;0.60;;;0.60;;
18046;SDS011;9148;51.454;13.862;2023-01-15T08:58:27;0.30;;;0.30;;
18046;SDS011;9148;51.454;13.862;2023-01-15T09:00:54;0.50;;;0.33;;
18046;SDS011;9148;51.454;13.862;2023-01-15T09:03:20;0.77;;;0.70;;
18046;SDS011;9148;51.454;13.862;2023-01-15T09:05:46;0.43;;;0.37;;
18046;SDS011;9148;51.454;13.862;2023-01-15T09:08:12;0.47;;;0.43;;
18046;SDS011;9148;51.454;13.862;2023-01-15T09:10:38;0.47;;;0.30;;
18046;SDS011;9148;51.454;13.862;2023-01-15T09:13:03;0.10;;;0.10;;
18046;SDS011;9148;51.454;13.862;2023-01-15T09:15:30;0.10;;;0.10;;
18046;SDS011;9148;51.454;13.862;2023-01-15T09:17:57;0.87;;;0.30;;
18046;SDS011;9148;51.454;13.862;2023-01-15T09:20:23;0.50;;;0.40;;
18046;SDS011;9148;51.454;13.862;2023-01-15T09:22:49;0.30;;;0.30;;
18046;SDS011;9148;51.454;13.862;2023-01-15T09:25:15;0.10;;;0.10;;
18046;SDS011;9148;51.454;13.862;2023-01-15T09:27:43;0.30;;;0.30;;
18046;SDS011;9148;51.454;13.862;2023-01-15T09:30:10;0.10;;;0.10;;
18046;SDS011;9148;51.454;13.862;2023-01-15T09:32:41;1.13;;;0.57;;
18046;SDS011;9148;51.454;13.862;2023-01-15T09:35:07;0.40;;;0.40;;
18046;SDS011;9148;51.454;13.862;2023-01-15T09:37:33;0.57;;;0.20;;
18046;SDS011;9148;51.454;13.862;2023-01-15T09:39:59;0.30;;;0.20;;
18046;SDS011;9148;51.454;13.862;2023-01-15T09:42:43;0.70;;;0.53;;
18046;SDS011;9148;51.454;13.862;2023-01-15T09:48:19;0.30;;;0.30;;
18046;SDS011;9148;51.454;13.862;2023-01-15T09:50:55;0.70;;;0.53;;
18046;SDS011;9148;51.454;13.862;2023-01-15T09:53:56;0.30;;;0.20;;
18046;SDS011;9148;51.454;13.862;2023-01-15T09:56:32;0.10;;;0.10;;
18046;SDS011;9148;51.454;13.862;2023-01-15T09:59:02;0.30;;;0.30;;
18046;SDS011;9148;51.454;13.862;2023-01-15T10:01:42;1.93;;;0.40;;
18046;SDS011;9148;51.454;13.862;2023-01-15T10:10:24;0.63;;;0.50;;
18046;SDS011;9148;51.454;13.862;2023-01-15T10:12:59;0.40;;;0.20;;
18046;SDS011;9148;51.454;13.862;2023-01-15T10:15:35;0.30;;;0.30;;
18046;SDS011;9148;51.454;13.862;2023-01-15T10:18:11;0.20;;;0.20;;
18046;SDS011;9148;51.454;13.862;2023-01-15T10:21:02;0.30;;;0.30;;
18046;SDS011;9148;51.454;13.862;2023-01-15T10:24:06;0.20;;;0.20;;
18046;SDS011;9148;51.454;13.862;2023-01-15T10:26:46;0.33;;;0.20;;
18046;SDS011;9148;51.454;13.862;2023-01-15T10:29:25;0.67;;;0.33;;
18046;SDS011;9148;51.454;13.862;2023-01-15T10:46:27;0.60;;;0.50;;
18046;SDS011;9148;51.454;13.862;2023-01-15T10:49:02;0.53;;;0.40;;
18046;SDS011;9148;51.454;13.862;2023-01-15T10:51:44;0.20;;;0.20;;
18046;SDS011;9148;51.454;13.862;2023-01-15T10:56:54;0.30;;;0.30;;
18046;SDS011;9148;51.454;13.862;2023-01-15T10:59:38;0.63;;;0.37;;
18046;SDS011;9148;51.454;13.862;2023-01-15T11:02:20;0.37;;;0.37;;
18046;SDS011;9148;51.454;13.862;2023-01-15T11:04:53;0.10;;;0.10;;
18046;SDS011;9148;51.454;13.862;2023-01-15T11:07:25;0.27;;;0.27;;
18046;SDS011;9148;51.454;13.862;2023-01-15T11:10:01;0.83;;;0.30;;
18046;SDS011;9148;51.454;13.862;2023-01-15T11:12:34;0.17;;;0.17;;
18046;SDS011;9148;51.454;13.862;2023-01-15T11:15:22;1.17;;;0.67;;
18046;SDS011;9148;51.454;13.862;2023-01-15T11:18:11;0.30;;;0.20;;
18046;SDS011;9148;51.454;13.862;2023-01-15T11:20:58;0.73;;;0.73;;
18046;SDS011;9148;51.454;13.862;2023-01-15T11:23:25;2.70;;;1.57;;
18046;SDS011;9148;51.454;13.862;2023-01-15T11:25:51;7.63;;;2.70;;
18046;SDS011;9148;51.454;13.862;2023-01-15T11:28:30;3.70;;;2.03;;
18046;SDS011;9148;51.454;13.862;2023-01-15T11:31:10;2.03;;;1.30;;
18046;SDS011;9148;51.454;13.862;2023-01-15T11:33:37;0.27;;;0.27;;
18046;SDS011;9148;51.454;13.862;2023-01-15T11:36:18;0.40;;;0.40;;
18046;SDS011;9148;51.454;13.862;2023-01-15T11:38:48;0.47;;;0.40;;
18046;SDS011;9148;51.454;13.862;2023-01-15T11:41:22;0.30;;;0.30;;
18046;SDS011;9148;51.454;13.862;2023-01-15T11:44:09;0.67;;;0.33;;
18046;SDS011;9148;51.454;13.862;2023-01-15T11:46:54;0.13;;;0.13;;
18046;SDS011;9148;51.454;13.862;2023-01-15T11:49:39;0.20;;;0.20;;
18046;SDS011;9148;51.454;13.862;2023-01-15T11:52:32;0.67;;;0.20;;
18046;SDS011;9148;51.454;13.862;2023-01-15T11:55:19;0.77;;;0.43;;
18046;SDS011;9148;51.454;13.862;2023-01-15T11:57:49;3.83;;;0.47;;
18046;SDS011;9148;51.454;13.862;2023-01-15T12:02:48;0.97;;;0.30;;
18046;SDS011;9148;51.454;13.862;2023-01-15T12:05:17;0.20;;;0.20;;
18046;SDS011;9148;51.454;13.862;2023-01-15T12:07:50;0.20;;;0.10;;
18046;SDS011;9148;51.454;13.862;2023-01-15T12:10:21;0.37;;;0.30;;
18046;SDS011;9148;51.454;13.862;2023-01-15T12:13:17;0.20;;;0.20;;
18046;SDS011;9148;51.454;13.862;2023-01-15T12:16:20;0.10;;;0.10;;
18046;SDS011;9148;51.454;13.862;2023-01-15T12:19:39;0.50;;;0.20;;
18046;SDS011;9148;51.454;13.862;2023-01-15T12:30:52;2.10;;;0.40;;
18046;SDS011;9148;51.454;13.862;2023-01-15T12:33:45;0.23;;;0.10;;
18046;SDS011;9148;51.454;13.862;2023-01-15T12:36:24;0.87;;;0.30;;
18046;SDS011;9148;51.454;13.862;2023-01-15T12:39:03;0.30;;;0.23;;
18046;SDS011;9148;51.454;13.862;2023-01-15T12:41:57;0.30;;;0.30;;
18046;SDS011;9148;51.454;13.862;2023-01-15T12:44:48;0.27;;;0.27;;
18046;SDS011;9148;51.454;13.862;2023-01-15T12:53:13;0.10;;;0.10;;
18046;SDS011;9148;51.454;13.862;2023-01-15T12:59:30;0.10;;;0.10;;
18046;SDS011;9148;51.454;13.862;2023-01-15T13:01:57;0.37;;;0.30;;
18046;SDS011;9148;51.454;13.862;2023-01-15T13:04:51;3.40;;;0.50;;
18046;SDS011;9148;51.454;13.862;2023-01-15T13:07:40;0.67;;;0.30;;
18046;SDS011;9148;51.454;13.862;2023-01-15T13:10:14;0.17;;;0.17;;
18046;SDS011;9148;51.454;13.862;2023-01-15T13:12:44;0.50;;;0.47;;
18046;SDS011;9148;51.454;13.862;2023-01-15T13:15:19;0.23;;;0.23;;
18046;SDS011;9148;51.454;13.862;2023-01-15T13:20:33;1.40;;;0.23;;
18046;SDS011;9148;51.454;13.862;2023-01-15T13:26:46;1.30;;;0.30;;
18046;SDS011;9148;51.454;13.862;2023-01-15T13:32:02;0.33;;;0.33;;
18046;SDS011;9148;51.454;13.862;2023-01-15T13:34:49;0.70;;;0.33;;
18046;SDS011;9148;51.454;13.862;2023-01-15T13:37:31;0.20;;;0.20;;
18046;SDS011;9148;51.454;13.862;2023-01-15T13:42:59;0.30;;;0.30;;
18046;SDS011;9148;51.454;13.862;2023-01-15T13:45:36;0.20;;;0.20;;
18046;SDS011;9148;51.454;13.862;2023-01-15T13:48:19;1.10;;;0.50;;
18046;SDS011;9148;51.454;13.862;2023-01-15T13:50:59;0.40;;;0.30;;
18046;SDS011;9148;51.454;13.862;2023-01-15T13:53:29;1.93;;;0.17;;
18046;SDS011;9148;51.454;13.862;2023-01-15T13:56:09;0.20;;;0.13;;
18046;SDS011;9148;51.454;13.862;2023-01-15T13:58:50;0.10;;;0.10;;
18046;SDS011;9148;51.454;13.862;2023-01-15T14:01:22;0.10;;;0.10;;
18046;SDS011;9148;51.454;13.862;2023-01-15T14:06:40;0.30;;;0.20;;
18046;SDS011;9148;51.454;13.862;2023-01-15T14:11:53;0.10;;;0.10;;
18046;SDS011;9148;51.454;13.862;2023-01-15T14:14:50;0.37;;;0.30;;
18046;SDS011;9148;51.454;13.862;2023-01-15T14:17:49;0.23;;;0.20;;
18046;SDS011;9148;51.454;13.862;2023-01-15T14:23:47;0.77;;;0.20;;
18046;SDS011;9148;51.454;13.862;2023-01-15T14:32:24;1.80;;;0.50;;
18046;SDS011;9148;51.454;13.862;2023-01-15T14:35:22;0.47;;;0.33;;
18046;SDS011;9148;51.454;13.862;2023-01-15T14:37:53;0.37;;;0.27;;
18046;SDS011;9148;51.454;13.862;2023-01-15T14:40:26;0.33;;;0.30;;
18046;SDS011;9148;51.454;13.862;2023-01-15T14:42:55;0.87;;;0.30;;
18046;SDS011;9148;51.454;13.862;2023-01-15T14:45:35;0.73;;;0.33;;
18046;SDS011;9148;51.454;13.862;2023-01-15T14:48:15;0.77;;;0.47;;
18046;SDS011;9148;51.454;13.862;2023-01-15T14:51:11;0.90;;;0.77;;
18046;SDS011;9148;51.454;13.862;2023-01-15T14:56:17;0.37;;;0.30;;
18046;SDS011;9148;51.454;13.862;2023-01-15T15:02:37;0.70;;;0.43;;
18046;SDS011;9148;51.454;13.862;2023-01-15T15:04:59;3.60;;;1.10;;
18046;SDS011;9148;51.454;13.862;2023-01-15T15:07:26;1.17;;;0.60;;
18046;SDS011;9148;51.454;13.862;2023-01-15T15:10:19;1.10;;;0.50;;
18046;SDS011;9148;51.454;13.862;2023-01-15T15:15:38;0.47;;;0.40;;
18046;SDS011;9148;51.454;13.862;2023-01-15T15:23:45;0.43;;;0.33;;
18046;SDS011;9148;51.454;13.862;2023-01-15T15:26:26;0.60;;;0.60;;
18046;SDS011;9148;51.454;13.862;2023-01-15T15:28:58;0.97;;;0.50;;
18046;SDS011;9148;51.454;13.862;2023-01-15T15:31:36;1.03;;;0.50;;
18046;SDS011;9148;51.454;13.862;2023-01-15T15:34:11;0.50;;;0.50;;
18046;SDS011;9148;51.454;13.862;2023-01-15T15:36:50;0.60;;;0.60;;
18046;SDS011;9148;51.454;13.862;2023-01-15T15:39:22;0.40;;;0.40;;
18046;SDS011;9148;51.454;13.862;2023-01-15T15:41:58;0.30;;;0.30;;
18046;SDS011;9148;51.454;13.862;2023-01-15T15:47:38;0.30;;;0.30;;
18046;SDS011;9148;51.454;13.862;2023-01-15T15:50:26;1.23;;;0.90;;
18046;SDS011;9148;51.454;13.862;2023-01-15T15:52:55;0.83;;;0.33;;
18046;SDS011;9148;51.454;13.862;2023-01-15T15:55:22;0.20;;;0.20;;
18046;SDS011;9148;51.454;13.862;2023-01-15T15:57:53;0.80;;;0.77;;
18046;SDS011;9148;51.454;13.862;2023-01-15T16:00:37;0.40;;;0.40;;
18046;SDS011;9148;51.454;13.862;2023-01-15T16:03:15;0.50;;;0.40;;
18046;SDS011;9148;51.454;13.862;2023-01-15T16:08:31;1.23;;;0.30;;
18046;SDS011;9148;51.454;13.862;2023-01-15T16:11:00;0.50;;;0.50;;
18046;SDS011;9148;51.454;13.862;2023-01-15T16:13:32;0.53;;;0.47;;
18046;SDS011;9148;51.454;13.862;2023-01-15T16:16:07;1.07;;;0.50;;
18046;SDS011;9148;51.454;13.862;2023-01-15T16:18:34;0.50;;;0.50;;
18046;SDS011;9148;51.454;13.862;2023-01-15T16:21:23;0.50;;;0.47;;
18046;SDS011;9148;51.454;13.862;2023-01-15T16:23:57;1.83;;;0.70;;
18046;SDS011;9148;51.454;13.862;2023-01-15T16:26:30;0.40;;;0.40;;
18046;SDS011;9148;51.454;13.862;2023-01-15T16:29:04;0.97;;;0.37;;
18046;SDS011;9148;51.454;13.862;2023-01-15T16:31:39;0.93;;;0.53;;
18046;SDS011;9148;51.454;13.862;2023-01-15T16:34:05;0.20;;;0.20;;
18046;SDS011;9148;51.454;13.862;2023-01-15T16:36:41;0.40;;;0.40;;
18046;SDS011;9148;51.454;13.862;2023-01-15T16:42:01;0.20;;;0.20;;
18046;SDS011;9148;51.454;13.862;2023-01-15T16:44:31;0.20;;;0.20;;
18046;SDS011;9148;51.454;13.862;2023-01-15T16:47:00;0.63;;;0.57;;
18046;SDS011;9148;51.454;13.862;2023-01-15T16:49:29;0.33;;;0.30;;
18046;SDS011;9148;51.454;13.862;2023-01-15T16:51:58;0.67;;;0.23;;
18046;SDS011;9148;51.454;13.862;2023-01-15T16:56:58;1.47;;;0.40;;
18046;SDS011;9148;51.454;13.862;2023-01-15T17:04:32;1.23;;;0.20;;
18046;SDS011;9148;51.454;13.862;2023-01-15T17:09:52;0.20;;;0.20;;
18046;SDS011;9148;51.454;13.862;2023-01-15T17:12:32;0.23;;;0.23;;
18046;SDS011;9148;51.454;13.862;2023-01-15T17:15:59;0.80;;;0.47;;
18046;SDS011;9148;51.454;13.862;2023-01-15T17:17:52;0.20;;;0.20;;
18046;SDS011;9148;51.454;13.862;2023-01-15T17:20:19;0.10;;;0.10;;
18046;SDS011;9148;51.454;13.862;2023-01-15T17:22:57;0.20;;;0.20;;
18046;SDS011;9148;51.454;13.862;2023-01-15T17:25:25;0.57;;;0.30;;
18046;SDS011;9148;51.454;13.862;2023-01-15T17:27:52;0.20;;;0.20;;
18046;SDS011;9148;51.454;13.862;2023-01-15T17:30:19;0.60;;;0.40;;
18046;SDS011;9148;51.454;13.862;2023-01-15T17:32:46;1.63;;;0.50;;